Time;durP1;ratioP1;P1;durP2;ratioP2;P2;SDS_P1;SDS_P2;PMS_P1;PMS_P2;Temp;Humidity;BMP_temperature;BMP_pressure;BME280_temperature;BME280_humidity;BME280_pressure;Samples;Min_cycle;Max_cycle;Signal;HPM_P1;HPM_P2
2021/01/25 00:01:47;;;;;;;4.68;4.28;;;5.70;99.90;;;;;;4971901;28;20201;-45
2021/01/25 00:04:18;;;;;;;5.28;4.78;;;5.70;99.90;;;;;;4973033;28;20209;-49
2021/01/25 00:06:48;;;;;;;4.82;4.43;;;5.60;99.90;;;;;;4980771;28;20574;-47
2021/01/25 00:09:18;;;;;;;6.15;5.55;;;5.60;99.90;;;;;;4965757;28;20228;-44
2021/01/25 00:11:50;;;;;;;3.95;3.65;;;5.60;99.90;;;;;;4977093;28;20233;-43
2021/01/25 00:14:21;;;;;;;4.00;3.70;;;5.70;99.90;;;;;;4983787;28;20209;-44
2021/01/25 00:16:51;;;;;;;3.28;2.97;;;5.80;99.90;;;;;;4977416;28;20681;-47
2021/01/25 00:19:21;;;;;;;4.25;3.95;;;5.80;99.90;;;;;;4977723;28;20232;-43
2021/01/25 00:21:51;;;;;;;3.35;3.05;;;5.70;99.90;;;;;;4964648;28;20221;-46
2021/01/25 00:24:21;;;;;;;3.53;3.22;;;5.70;99.90;;;;;;4971778;28;20212;-48
2021/01/25 00:26:52;;;;;;;3.00;2.80;;;5.70;99.90;;;;;;4971469;28;20237;-45
2021/01/25 00:29:22;;;;;;;3.38;2.95;;;5.70;99.90;;;;;;4980261;28;20243;-45
2021/01/25 00:31:54;;;;;;;3.08;2.78;;;5.60;99.90;;;;;;4963987;28;20209;-46
2021/01/25 00:34:24;;;;;;;3.03;2.65;;;5.50;99.90;;;;;;4966932;28;20284;-46
2021/01/25 00:36:54;;;;;;;2.50;2.30;;;5.50;99.90;;;;;;4975330;28;20201;-44
2021/01/25 00:39:24;;;;;;;3.13;2.83;;;5.40;99.90;;;;;;4964461;28;20280;-44
2021/01/25 00:41:56;;;;;;;3.65;3.35;;;5.40;99.90;;;;;;4963728;28;20229;-45
2021/01/25 00:44:27;;;;;;;3.40;3.10;;;5.40;99.90;;;;;;4964292;28;20253;-45
2021/01/25 00:46:57;;;;;;;5.63;5.22;;;5.30;99.90;;;;;;4964013;28;20267;-43
2021/01/25 00:49:27;;;;;;;5.28;4.80;;;5.20;99.90;;;;;;4964789;28;20217;-46
2021/01/25 00:51:57;;;;;;;282.27;50.80;;;5.30;99.90;;;;;;4973121;28;20205;-44
2021/01/25 00:54:27;;;;;;;470.48;81.10;;;5.40;99.90;;;;;;4982148;28;20263;-44
2021/01/25 00:56:59;;;;;;;7.53;6.78;;;5.40;99.90;;;;;;4969967;28;20205;-43
2021/01/25 00:59:29;;;;;;;11.35;10.38;;;5.40;99.90;;;;;;4977675;28;20215;-47
2021/01/25 01:01:59;;;;;;;7.40;6.80;;;5.40;99.90;;;;;;4978381;28;20213;-49
2021/01/25 01:04:29;;;;;;;5.55;5.05;;;5.30;99.90;;;;;;4983589;28;20595;-48
2021/01/25 01:06:59;;;;;;;7.18;6.53;;;5.30;99.90;;;;;;4973464;28;20202;-46
2021/01/25 01:09:29;;;;;;;7.72;6.57;;;5.30;99.90;;;;;;4979637;28;20276;-46
2021/01/25 01:12:01;;;;;;;17.08;14.82;;;5.30;99.90;;;;;;4965019;28;20241;-44
2021/01/25 01:14:31;;;;;;;32.03;28.58;;;5.20;99.90;;;;;;4971974;28;20239;-46
2021/01/25 01:17:01;;;;;;;27.63;24.58;;;5.10;99.90;;;;;;4981818;28;20213;-44
2021/01/25 01:19:32;;;;;;;5.07;4.57;;;5.10;99.90;;;;;;4980446;28;20228;-49
2021/01/25 01:22:02;;;;;;;6.03;5.45;;;5.20;99.90;;;;;;4969818;28;20248;-44
2021/01/25 01:24:32;;;;;;;4.85;4.43;;;5.20;99.90;;;;;;4968189;28;20299;-46
2021/01/25 01:27:03;;;;;;;4.10;3.75;;;5.20;99.90;;;;;;4983166;28;20698;-46
2021/01/25 01:29:33;;;;;;;5.22;4.70;;;5.10;99.90;;;;;;4983773;28;20252;-48
2021/01/25 01:32:03;;;;;;;21.77;19.50;;;5.10;99.90;;;;;;4976937;28;20205;-44
2021/01/25 01:34:33;;;;;;;6.90;5.97;;;5.10;99.90;;;;;;4967190;28;20677;-46
2021/01/25 01:37:03;;;;;;;8.80;7.90;;;5.10;99.90;;;;;;4972071;28;20209;-56
2021/01/25 01:39:33;;;;;;;6.97;6.40;;;5.00;99.90;;;;;;4985978;28;20272;-48
2021/01/25 01:42:05;;;;;;;9.30;8.40;;;5.00;99.90;;;;;;4966864;28;20213;-47
2021/01/25 01:44:35;;;;;;;5.45;4.95;;;5.10;99.90;;;;;;4966014;28;20209;-46
2021/01/25 01:47:06;;;;;;;6.25;5.75;;;5.00;99.90;;;;;;4981106;28;20190;-49
2021/01/25 01:49:36;;;;;;;6.93;6.32;;;5.00;99.90;;;;;;4976821;28;20297;-50
2021/01/25 01:52:07;;;;;;;5.40;4.90;;;5.00;99.90;;;;;;4967315;28;20228;-44
2021/01/25 01:54:37;;;;;;;5.13;4.72;;;5.10;99.90;;;;;;4981079;28;20212;-50
2021/01/25 01:57:08;;;;;;;5.65;4.60;;;5.10;99.90;;;;;;4963910;28;20208;-48
2021/01/25 01:59:39;;;;;;;5.50;5.10;;;5.00;99.90;;;;;;4964421;28;20240;-49
2021/01/25 02:02:09;;;;;;;6.20;5.30;;;5.00;99.90;;;;;;4969763;28;20281;-45
2021/01/25 02:04:40;;;;;;;7.88;7.28;;;4.90;99.90;;;;;;4978941;28;20284;-46
2021/01/25 02:07:11;;;;;;;8.93;8.15;;;4.90;99.90;;;;;;4969533;28;20201;-44
2021/01/25 02:09:44;;;;;;;8.90;8.10;;;4.90;99.90;;;;;;4976713;28;20283;-45
2021/01/25 02:12:19;;;;;;;9.20;8.30;;;5.00;99.90;;;;;;4981137;28;20244;-49
2021/01/25 02:14:52;;;;;;;6.57;5.97;;;5.00;99.90;;;;;;4968441;28;20204;-50
2021/01/25 02:17:23;;;;;;;11.20;8.98;;;5.00;99.90;;;;;;4971123;28;20209;-46
2021/01/25 02:20:04;;;;;;;10.80;9.55;;;5.00;99.90;;;;;;4986833;28;20197;-48
2021/01/25 02:22:58;;;;;;;8.07;7.32;;;5.00;99.90;;;;;;4984337;28;20204;-44
2021/01/25 02:25:39;;;;;;;10.48;9.30;;;5.00;99.90;;;;;;4946296;28;20361;-47
2021/01/25 02:28:10;;;;;;;12.55;11.32;;;4.90;99.90;;;;;;4986348;28;20271;-44
2021/01/25 02:30:40;;;;;;;12.68;11.45;;;4.80;99.90;;;;;;4986442;28;20217;-48
2021/01/25 02:33:12;;;;;;;12.18;11.02;;;4.90;99.90;;;;;;4968704;28;20231;-48
2021/01/25 02:35:43;;;;;;;9.93;9.02;;;4.90;99.90;;;;;;4967214;28;20240;-49
2021/01/25 02:38:15;;;;;;;7.43;6.72;;;4.90;99.90;;;;;;4967303;28;20263;-47
2021/01/25 02:40:49;;;;;;;6.68;5.63;;;5.00;99.90;;;;;;4966537;28;20209;-47
2021/01/25 02:43:21;;;;;;;9.35;8.35;;;5.00;99.90;;;;;;4976090;28;20216;-46
2021/01/25 02:45:52;;;;;;;7.30;6.68;;;5.00;99.90;;;;;;4971653;28;20208;-46
2021/01/25 02:48:22;;;;;;;7.85;7.15;;;5.00;99.90;;;;;;4980953;28;20221;-46
2021/01/25 02:50:53;;;;;;;7.70;6.93;;;5.00;99.90;;;;;;4966993;28;20213;-44
2021/01/25 02:53:23;;;;;;;7.45;6.85;;;5.00;99.90;;;;;;4977435;28;20205;-48
2021/01/25 02:55:54;;;;;;;9.32;7.55;;;5.10;99.90;;;;;;4965924;28;20216;-44
2021/01/25 02:58:27;;;;;;;7.97;7.18;;;5.00;99.90;;;;;;4966810;28;20202;-49
2021/01/25 03:00:58;;;;;;;8.85;7.93;;;5.00;99.90;;;;;;4973101;28;20652;-46
2021/01/25 03:03:31;;;;;;;8.80;8.02;;;5.00;99.90;;;;;;4967064;28;20200;-48
2021/01/25 03:06:01;;;;;;;8.90;8.00;;;5.10;99.90;;;;;;4981697;28;20283;-46
2021/01/25 03:08:31;;;;;;;8.23;7.35;;;5.00;99.90;;;;;;4985811;28;20252;-47
2021/01/25 03:11:01;;;;;;;8.98;8.18;;;5.10;99.90;;;;;;4983767;28;20271;-48
2021/01/25 03:13:33;;;;;;;8.98;7.90;;;5.10;99.90;;;;;;4987178;28;20200;-48
2021/01/25 03:16:05;;;;;;;8.80;7.90;;;5.10;99.90;;;;;;4979061;28;20215;-46
2021/01/25 03:18:37;;;;;;;7.97;7.28;;;4.90;99.90;;;;;;4966856;28;20189;-47
2021/01/25 03:21:07;;;;;;;8.38;7.55;;;4.90;99.90;;;;;;4967726;28;20194;-48
2021/01/25 03:23:38;;;;;;;8.90;8.10;;;4.90;99.90;;;;;;4997917;28;20212;-46
2021/01/25 03:26:08;;;;;;;12.07;9.35;;;4.90;99.90;;;;;;4984025;28;20220;-48
2021/01/25 03:28:39;;;;;;;8.57;7.72;;;5.00;99.90;;;;;;4978364;28;20237;-45
2021/01/25 03:31:09;;;;;;;8.75;7.70;;;5.00;99.90;;;;;;4982064;28;20219;-47
2021/01/25 03:33:40;;;;;;;7.13;6.53;;;5.00;99.90;;;;;;4988294;28;20287;-49
2021/01/25 03:36:10;;;;;;;17.83;12.70;;;5.00;99.90;;;;;;4984744;28;20205;-47
2021/01/25 03:38:40;;;;;;;7.35;6.65;;;5.00;99.90;;;;;;4985485;28;20248;-45
2021/01/25 03:41:10;;;;;;;19.67;13.13;;;5.00;99.90;;;;;;4977822;28;20636;-45
2021/01/25 03:43:41;;;;;;;7.20;6.60;;;4.90;99.90;;;;;;4984340;28;20213;-49
2021/01/25 03:46:11;;;;;;;7.25;6.55;;;4.90;99.90;;;;;;4982705;28;20222;-44
2021/01/25 03:48:41;;;;;;;7.05;6.45;;;4.90;99.90;;;;;;4985939;28;20228;-46
2021/01/25 03:51:11;;;;;;;7.20;6.50;;;4.90;99.90;;;;;;4989254;28;20211;-46
2021/01/25 03:53:42;;;;;;;7.53;6.90;;;4.90;99.90;;;;;;4967603;28;20206;-42
2021/01/25 03:56:12;;;;;;;7.50;6.85;;;4.90;99.90;;;;;;4968999;28;20561;-46
2021/01/25 03:58:44;;;;;;;8.00;7.20;;;4.80;99.90;;;;;;4980771;28;20200;-49
2021/01/25 04:01:15;;;;;;;7.47;6.78;;;4.70;99.90;;;;;;4975482;28;20202;-43
2021/01/25 04:03:45;;;;;;;7.88;7.18;;;4.80;99.90;;;;;;4977146;28;20256;-48
2021/01/25 04:06:17;;;;;;;8.85;7.95;;;4.80;99.90;;;;;;4968370;28;20260;-47
2021/01/25 04:08:47;;;;;;;8.10;7.40;;;4.80;99.90;;;;;;4973456;28;20228;-46
2021/01/25 04:11:18;;;;;;;8.85;7.40;;;4.80;99.90;;;;;;4977431;28;20256;-48
2021/01/25 04:13:49;;;;;;;9.90;8.38;;;4.70;99.90;;;;;;4981748;28;20238;-44
2021/01/25 04:16:19;;;;;;;8.43;7.38;;;4.70;99.90;;;;;;4978149;28;20255;-44
2021/01/25 04:18:49;;;;;;;9.93;9.02;;;4.60;99.90;;;;;;4971468;28;20249;-42
2021/01/25 04:21:19;;;;;;;9.48;8.57;;;4.60;99.90;;;;;;4980899;28;20334;-39
2021/01/25 04:23:49;;;;;;;11.35;10.25;;;4.60;99.90;;;;;;4984122;28;20201;-41
2021/01/25 04:26:19;;;;;;;9.73;8.82;;;4.60;99.90;;;;;;4982926;28;20213;-40
2021/01/25 04:28:51;;;;;;;10.32;9.43;;;4.60;99.90;;;;;;4983831;28;20228;-44
2021/01/25 04:31:21;;;;;;;9.55;8.55;;;4.60;99.90;;;;;;4968240;28;20229;-41
2021/01/25 04:33:51;;;;;;;8.93;8.02;;;4.60;99.90;;;;;;4972347;28;20636;-44
2021/01/25 04:36:21;;;;;;;10.77;8.32;;;4.70;99.90;;;;;;4973450;28;20213;-44
2021/01/25 04:38:51;;;;;;;10.60;9.60;;;4.70;99.90;;;;;;4969369;28;20264;-40
2021/01/25 04:41:21;;;;;;;8.43;7.57;;;4.70;99.90;;;;;;4964126;28;20209;-40
2021/01/25 04:43:54;;;;;;;127.50;31.35;;;4.80;99.90;;;;;;4990622;28;20212;-45
2021/01/25 04:46:25;;;;;;;9.65;8.70;;;4.80;99.90;;;;;;4975544;28;20201;-42
2021/01/25 04:48:55;;;;;;;8.75;7.90;;;4.70;99.90;;;;;;4985198;28;20315;-41
2021/01/25 04:51:27;;;;;;;9.82;8.27;;;4.80;99.90;;;;;;4965162;28;20238;-44
2021/01/25 04:53:57;;;;;;;11.32;8.63;;;4.90;99.90;;;;;;4968771;28;20224;-42
2021/01/25 04:56:28;;;;;;;9.15;8.25;;;4.90;99.90;;;;;;4975256;28;20212;-42
2021/01/25 04:58:59;;;;;;;9.07;8.18;;;5.00;99.90;;;;;;4979586;28;20208;-46
2021/01/25 05:01:29;;;;;;;10.00;9.10;;;5.00;99.90;;;;;;4982575;28;20208;-47
2021/01/25 05:04:00;;;;;;;9.77;8.80;;;5.00;99.90;;;;;;4979380;28;20205;-46
2021/01/25 05:06:30;;;;;;;10.82;9.80;;;5.00;99.90;;;;;;4970485;28;20209;-43
2021/01/25 05:09:00;;;;;;;9.88;8.40;;;5.00;99.90;;;;;;4974376;28;20307;-44
2021/01/25 05:11:31;;;;;;;10.15;8.20;;;5.00;99.90;;;;;;4973656;28;20320;-43
2021/01/25 05:14:06;;;;;;;10.52;9.52;;;5.00;99.90;;;;;;4975549;28;20550;-48
2021/01/25 05:16:36;;;;;;;9.45;8.55;;;4.90;99.90;;;;;;4976998;28;20216;-43
2021/01/25 05:19:07;;;;;;;11.00;10.00;;;4.90;99.90;;;;;;4979611;28;20204;-43
2021/01/25 05:21:43;;;;;;;10.75;9.40;;;4.90;99.90;;;;;;4978609;28;20205;-43
2021/01/25 05:24:15;;;;;;;12.00;9.18;;;5.00;99.90;;;;;;4976895;28;20214;-43
2021/01/25 05:26:56;;;;;;;9.75;8.85;;;5.00;99.90;;;;;;4974660;28;20278;-48
2021/01/25 05:29:28;;;;;;;9.40;8.32;;;5.00;99.90;;;;;;4975806;28;20454;-47
2021/01/25 05:31:59;;;;;;;9.80;8.90;;;5.10;99.90;;;;;;4978285;28;20209;-45
2021/01/25 05:34:29;;;;;;;9.85;8.85;;;5.10;99.90;;;;;;4981294;28;20205;-45
2021/01/25 05:37:02;;;;;;;10.52;9.52;;;5.10;99.90;;;;;;4980328;28;20591;-46
2021/01/25 05:39:33;;;;;;;11.55;10.20;;;5.00;99.90;;;;;;4981128;28;20296;-44
2021/01/25 05:42:03;;;;;;;10.85;9.52;;;5.10;99.90;;;;;;4976168;28;20209;-50
2021/01/25 05:44:35;;;;;;;9.82;8.93;;;5.10;99.90;;;;;;4985768;28;20216;-48
2021/01/25 05:47:06;;;;;;;10.70;9.65;;;5.10;99.90;;;;;;4982747;28;20209;-47
2021/01/25 05:49:37;;;;;;;10.57;9.57;;;5.10;99.90;;;;;;4978469;28;20260;-49
2021/01/25 05:52:07;;;;;;;10.55;9.45;;;5.10;99.90;;;;;;4986612;28;20263;-48
2021/01/25 05:54:37;;;;;;;11.70;9.90;;;5.10;99.90;;;;;;4981491;28;20283;-47
2021/01/25 05:57:08;;;;;;;10.00;9.10;;;5.10;99.90;;;;;;4985291;28;20350;-47
2021/01/25 05:59:39;;;;;;;11.50;10.40;;;5.10;99.90;;;;;;4987359;28;20200;-43
2021/01/25 06:02:09;;;;;;;10.57;9.48;;;5.00;99.90;;;;;;4986223;28;20205;-46
2021/01/25 06:04:40;;;;;;;10.13;9.13;;;5.00;99.90;;;;;;4977973;28;20206;-43
2021/01/25 06:07:13;;;;;;;10.88;9.88;;;5.10;99.90;;;;;;4975185;28;20220;-43
2021/01/25 06:09:51;;;;;;;11.60;10.40;;;5.10;99.90;;;;;;4982793;28;20287;-46
2021/01/25 06:12:27;;;;;;;10.85;9.75;;;5.10;99.90;;;;;;4978950;28;20240;-45
2021/01/25 06:15:05;;;;;;;11.43;8.90;;;5.10;99.90;;;;;;4976707;28;20215;-42
2021/01/25 06:17:36;;;;;;;14.77;11.23;;;5.00;99.90;;;;;;4977260;28;20200;-44
2021/01/25 06:20:10;;;;;;;12.25;10.57;;;5.10;99.90;;;;;;4983604;28;20227;-43
2021/01/25 06:22:40;;;;;;;13.10;10.90;;;5.10;99.90;;;;;;4980863;28;20213;-44
2021/01/25 06:25:11;;;;;;;12.43;10.98;;;5.00;99.90;;;;;;4985135;28;20209;-44
2021/01/25 06:27:43;;;;;;;11.18;9.93;;;5.10;99.90;;;;;;4984665;28;20308;-45
2021/01/25 06:30:16;;;;;;;12.43;10.80;;;5.10;99.90;;;;;;4986369;28;20235;-43
2021/01/25 06:32:47;;;;;;;10.95;9.95;;;5.10;99.90;;;;;;4985631;28;20255;-44
2021/01/25 06:35:18;;;;;;;11.50;9.15;;;5.10;99.90;;;;;;4985519;28;20209;-42
2021/01/25 06:37:59;;;;;;;15.57;9.82;;;5.10;99.90;;;;;;4971950;28;20268;-44
2021/01/25 06:40:31;;;;;;;11.75;9.40;;;5.00;99.90;;;;;;4981585;28;20208;-42
2021/01/25 06:43:07;;;;;;;12.18;10.05;;;5.20;99.90;;;;;;4981307;28;20208;-43
2021/01/25 06:45:40;;;;;;;11.88;9.93;;;5.20;99.90;;;;;;4974836;28;20204;-43
2021/01/25 06:48:13;;;;;;;10.10;9.07;;;5.20;99.90;;;;;;4985103;28;20487;-43
2021/01/25 06:50:46;;;;;;;11.05;9.65;;;5.20;99.90;;;;;;4984349;28;20209;-41
2021/01/25 06:53:16;;;;;;;13.55;10.18;;;5.10;99.90;;;;;;4977817;28;20212;-43
2021/01/25 06:55:46;;;;;;;13.23;10.05;;;5.10;99.90;;;;;;4984946;28;20201;-42
2021/01/25 06:58:16;;;;;;;12.27;9.65;;;5.20;99.90;;;;;;4984926;28;20240;-44
2021/01/25 07:00:54;;;;;;;10.73;8.80;;;5.10;99.90;;;;;;4982029;28;20208;-40
2021/01/25 07:03:24;;;;;;;11.55;9.80;;;5.10;99.90;;;;;;4980343;28;20197;-44
2021/01/25 07:05:59;;;;;;;12.13;9.43;;;5.10;99.90;;;;;;4982845;28;20223;-43
2021/01/25 07:08:31;;;;;;;11.30;9.20;;;5.20;99.90;;;;;;4985230;28;20236;-44
2021/01/25 07:11:02;;;;;;;14.27;10.10;;;5.10;99.90;;;;;;4981238;28;20693;-45
2021/01/25 07:13:51;;;;;;;14.07;8.73;;;5.20;99.90;;;;;;4970151;28;20201;-42
2021/01/25 07:16:25;;;;;;;10.27;8.93;;;5.10;99.90;;;;;;4975646;28;20212;-40
2021/01/25 07:18:56;;;;;;;10.88;8.23;;;5.10;99.90;;;;;;4985403;28;20645;-40
2021/01/25 07:21:31;;;;;;;11.75;9.00;;;5.10;99.90;;;;;;4984797;28;20204;-40
2021/01/25 07:24:02;;;;;;;10.40;8.60;;;5.10;99.90;;;;;;4976803;28;20256;-39
2021/01/25 07:26:38;;;;;;;10.88;8.57;;;5.10;99.90;;;;;;4976613;28;20208;-40
2021/01/25 07:29:12;;;;;;;16.58;8.60;;;5.10;99.90;;;;;;4976473;28;20552;-39
2021/01/25 07:31:43;;;;;;;13.43;8.95;;;4.90;99.90;;;;;;4984366;28;20200;-39
2021/01/25 07:34:14;;;;;;;9.93;7.53;;;4.90;99.90;;;;;;4985399;28;20231;-40
2021/01/25 07:36:44;;;;;;;9.10;7.40;;;4.80;99.90;;;;;;4972744;28;20233;-39
2021/01/25 07:39:15;;;;;;;9.82;7.35;;;4.70;99.90;;;;;;4967364;28;20283;-39
2021/01/25 07:41:46;;;;;;;9.30;6.85;;;4.80;99.90;;;;;;4969972;28;20229;-39
2021/01/25 07:44:17;;;;;;;10.02;6.80;;;4.80;99.90;;;;;;4984592;28;20586;-40
2021/01/25 07:46:50;;;;;;;11.32;7.78;;;4.80;99.90;;;;;;4972320;28;20205;-40
2021/01/25 07:49:28;;;;;;;7.10;6.35;;;4.80;99.90;;;;;;4971923;28;20229;-39
2021/01/25 07:51:58;;;;;;;9.00;7.20;;;4.70;99.90;;;;;;4984505;28;20196;-42
2021/01/25 07:54:31;;;;;;;10.05;6.72;;;4.70;99.90;;;;;;4984790;28;20239;-39
2021/01/25 07:57:01;;;;;;;9.80;7.50;;;4.70;99.90;;;;;;4970352;28;20217;-39
2021/01/25 07:59:35;;;;;;;8.32;6.78;;;4.60;99.90;;;;;;4968710;28;20217;-40
2021/01/25 08:02:09;;;;;;;8.63;6.95;;;4.70;99.90;;;;;;4978583;28;20228;-40
2021/01/25 08:04:43;;;;;;;6.93;6.10;;;4.70;99.90;;;;;;4978201;28;20204;-39
2021/01/25 08:07:16;;;;;;;11.65;7.00;;;4.70;99.90;;;;;;4970513;28;20238;-39
2021/01/25 08:09:47;;;;;;;7.32;6.55;;;4.60;99.90;;;;;;4980934;28;20712;-39
2021/01/25 08:12:21;;;;;;;10.82;6.60;;;4.60;99.90;;;;;;4976153;28;20229;-39
2021/01/25 08:15:00;;;;;;;8.73;6.15;;;4.60;99.90;;;;;;4979017;28;20271;-39
2021/01/25 08:17:34;;;;;;;6.82;6.18;;;4.50;99.90;;;;;;4983386;28;20206;-40
2021/01/25 08:20:09;;;;;;;9.40;6.70;;;4.40;99.90;;;;;;4972454;28;20215;-39
2021/01/25 08:22:45;;;;;;;9.40;6.38;;;4.40;99.90;;;;;;4977007;28;20216;-39
2021/01/25 08:25:19;;;;;;;9.40;6.95;;;4.40;99.90;;;;;;4981603;28;20614;-39
2021/01/25 08:28:01;;;;;;;8.20;6.22;;;4.30;99.90;;;;;;4983027;28;20215;-39
2021/01/25 08:30:39;;;;;;;10.57;6.60;;;4.30;99.90;;;;;;4977378;28;20239;-39
2021/01/25 08:33:11;;;;;;;9.00;6.43;;;4.30;99.90;;;;;;4970644;28;20216;-40
2021/01/25 08:35:53;;;;;;;12.35;7.30;;;4.40;99.90;;;;;;4983579;28;20225;-39
2021/01/25 08:38:29;;;;;;;7.53;6.10;;;4.30;99.90;;;;;;4979681;28;20288;-39
2021/01/25 08:41:02;;;;;;;10.15;6.32;;;4.20;99.90;;;;;;4977762;28;20208;-39
2021/01/25 08:43:33;;;;;;;8.45;6.00;;;4.20;99.90;;;;;;4984005;28;20204;-39
2021/01/25 08:46:12;;;;;;;14.07;5.80;;;4.10;99.90;;;;;;4976572;28;20279;-39
2021/01/25 08:48:43;;;;;;;11.27;6.00;;;4.20;99.90;;;;;;4966777;28;20236;-39
2021/01/25 08:51:16;;;;;;;11.13;5.75;;;4.20;99.90;;;;;;4970432;28;20217;-38
2021/01/25 08:53:46;;;;;;;10.07;6.15;;;4.30;99.90;;;;;;4969467;28;20209;-39
2021/01/25 08:56:18;;;;;;;9.77;6.85;;;4.30;99.90;;;;;;4974286;28;20205;-39
2021/01/25 08:58:48;;;;;;;9.18;6.20;;;4.30;99.90;;;;;;4964434;28;20568;-39
2021/01/25 09:01:25;;;;;;;10.00;6.47;;;4.30;99.90;;;;;;4975551;28;20201;-39
2021/01/25 09:04:00;;;;;;;8.60;6.68;;;4.20;99.90;;;;;;4968512;28;20263;-39
2021/01/25 09:06:30;;;;;;;9.75;6.78;;;4.10;99.90;;;;;;4979004;28;20201;-39
2021/01/25 09:09:02;;;;;;;11.60;6.60;;;4.20;99.90;;;;;;4977499;28;20231;-39
2021/01/25 09:11:33;;;;;;;8.88;5.43;;;4.20;99.90;;;;;;4972165;28;20233;-38
2021/01/25 09:14:03;;;;;;;9.68;5.88;;;4.30;99.90;;;;;;4974984;28;20208;-38
2021/01/25 09:16:34;;;;;;;8.40;5.68;;;4.30;99.90;;;;;;4978070;28;20216;-38
2021/01/25 09:19:04;;;;;;;11.30;6.35;;;4.30;99.90;;;;;;4987584;28;20283;-39
2021/01/25 09:21:36;;;;;;;7.70;5.55;;;4.40;99.90;;;;;;4973033;28;20209;-39
2021/01/25 09:24:07;;;;;;;7.32;5.13;;;4.40;99.90;;;;;;4985165;28;20200;-39
2021/01/25 09:26:37;;;;;;;5.93;5.32;;;4.50;99.90;;;;;;4980629;28;20261;-39
2021/01/25 09:29:07;;;;;;;10.32;5.38;;;4.40;99.90;;;;;;4980142;28;20259;-39
2021/01/25 09:31:38;;;;;;;8.20;5.05;;;4.20;99.90;;;;;;4972720;28;20241;-39
2021/01/25 09:34:08;;;;;;;10.35;4.78;;;4.10;99.90;;;;;;4987261;28;20208;-39
2021/01/25 09:36:38;;;;;;;10.27;4.88;;;4.00;99.90;;;;;;4986927;28;20242;-39
2021/01/25 09:39:09;;;;;;;8.82;5.32;;;3.90;99.90;;;;;;4986396;28;20213;-38
2021/01/25 09:41:41;;;;;;;7.65;4.65;;;3.90;99.90;;;;;;4970702;28;20201;-38
2021/01/25 09:44:11;;;;;;;7.80;4.70;;;3.90;99.90;;;;;;4972744;28;20216;-39
2021/01/25 09:46:42;;;;;;;5.30;4.65;;;3.90;99.90;;;;;;4986390;28;20209;-38
2021/01/25 09:49:15;;;;;;;4.55;3.95;;;3.80;99.90;;;;;;4976549;28;20229;-39
2021/01/25 09:51:46;;;;;;;7.65;4.93;;;3.70;99.90;;;;;;4986201;28;20264;-40
2021/01/25 09:54:17;;;;;;;6.40;4.40;;;3.70;99.90;;;;;;4974783;28;20219;-39
2021/01/25 09:56:48;;;;;;;9.57;5.00;;;3.70;99.90;;;;;;4983595;28;20271;-38
2021/01/25 09:59:18;;;;;;;8.43;5.07;;;3.80;99.90;;;;;;4985621;28;20259;-39
2021/01/25 10:01:49;;;;;;;6.07;4.28;;;3.80;99.90;;;;;;4984209;28;20279;-42
2021/01/25 10:04:20;;;;;;;5.72;4.30;;;3.80;99.90;;;;;;4985033;28;20244;-39
2021/01/25 10:06:50;;;;;;;7.75;5.20;;;3.70;99.90;;;;;;4986846;28;20213;-39
2021/01/25 10:09:20;;;;;;;7.60;4.93;;;3.70;99.90;;;;;;4986568;28;20228;-39
2021/01/25 10:11:50;;;;;;;10.52;6.90;;;3.70;99.90;;;;;;4982427;28;20705;-39
2021/01/25 10:14:20;;;;;;;10.13;5.13;;;3.70;99.90;;;;;;4986157;28;20227;-40
2021/01/25 10:16:51;;;;;;;10.52;5.38;;;3.80;99.90;;;;;;4981679;28;20260;-40
2021/01/25 10:19:22;;;;;;;8.93;5.95;;;3.80;99.90;;;;;;4986828;28;20256;-39
2021/01/25 10:21:52;;;;;;;8.52;5.68;;;3.70;99.90;;;;;;4985577;28;20597;-39
2021/01/25 10:24:22;;;;;;;10.32;5.45;;;3.70;99.90;;;;;;4978149;28;20227;-41
2021/01/25 10:26:53;;;;;;;7.32;5.13;;;3.70;99.90;;;;;;4985853;28;20212;-39
2021/01/25 10:29:23;;;;;;;5.00;4.22;;;3.60;99.90;;;;;;4986598;28;20251;-39
2021/01/25 10:31:54;;;;;;;9.25;5.78;;;3.60;99.90;;;;;;4970077;28;20213;-39
2021/01/25 10:34:24;;;;;;;11.85;5.07;;;3.50;99.90;;;;;;4981371;28;20220;-39
2021/01/25 10:36:54;;;;;;;6.80;4.93;;;3.50;99.90;;;;;;4976379;28;20272;-39
2021/01/25 10:39:24;;;;;;;6.72;5.22;;;3.40;99.90;;;;;;4981463;28;20205;-39
2021/01/25 10:41:54;;;;;;;10.52;4.57;;;3.30;99.90;;;;;;4982608;28;20287;-39
2021/01/25 10:44:24;;;;;;;6.38;5.07;;;3.30;99.90;;;;;;4981324;28;20276;-39
2021/01/25 10:46:55;;;;;;;9.30;5.40;;;3.30;99.90;;;;;;4967924;28;20223;-39
2021/01/25 10:49:26;;;;;;;6.68;4.97;;;3.40;99.90;;;;;;4981618;28;20292;-40
2021/01/25 10:51:56;;;;;;;8.68;5.15;;;3.40;99.90;;;;;;4985603;28;20275;-39
2021/01/25 10:54:26;;;;;;;8.85;4.85;;;3.40;99.90;;;;;;4985906;28;20228;-39
2021/01/25 10:56:56;;;;;;;8.98;4.95;;;3.40;99.90;;;;;;4976358;28;20213;-39
2021/01/25 10:59:26;;;;;;;8.98;5.50;;;3.40;99.90;;;;;;4980101;28;20226;-39
2021/01/25 11:01:57;;;;;;;6.35;4.95;;;3.40;99.90;;;;;;4984072;28;20212;-39
2021/01/25 11:04:27;;;;;;;9.30;5.43;;;3.40;99.90;;;;;;4981857;28;20256;-39
2021/01/25 11:06:57;;;;;;;12.90;5.40;;;3.40;99.90;;;;;;4968442;28;20240;-39
2021/01/25 11:09:27;;;;;;;7.07;5.55;;;3.50;99.90;;;;;;4981526;28;20232;-39
2021/01/25 11:12:20;;;;;;;10.35;4.47;;;3.60;99.90;;;;;;4972388;28;20239;-39
2021/01/25 11:14:50;;;;;;;5.90;4.80;;;3.70;99.90;;;;;;4978408;28;20209;-39
2021/01/25 11:17:21;;;;;;;7.40;4.25;;;3.80;99.90;;;;;;4976498;28;20312;-39
2021/01/25 11:19:51;;;;;;;8.48;4.30;;;3.70;99.90;;;;;;4983960;28;20219;-39
2021/01/25 11:22:21;;;;;;;7.30;4.72;;;3.80;99.90;;;;;;4983412;28;20665;-39
2021/01/25 11:24:51;;;;;;;6.38;4.70;;;3.70;99.90;;;;;;4976313;28;20279;-39
2021/01/25 11:27:21;;;;;;;10.95;4.72;;;3.50;99.90;;;;;;4984360;28;20416;-39
2021/01/25 11:29:51;;;;;;;6.55;4.35;;;3.50;99.90;;;;;;4984357;28;20236;-39
2021/01/25 11:32:23;;;;;;;8.68;4.35;;;3.50;99.90;;;;;;4983054;28;20209;-39
2021/01/25 11:34:53;;;;;;;6.28;4.50;;;3.40;99.90;;;;;;4976002;28;20197;-39
2021/01/25 11:37:23;;;;;;;7.82;4.28;;;3.30;99.90;;;;;;4983335;28;20244;-39
2021/01/25 11:39:53;;;;;;;7.13;4.55;;;3.30;99.90;;;;;;4984980;28;20705;-39
2021/01/25 11:42:23;;;;;;;10.25;5.32;;;3.30;99.90;;;;;;4978557;28;20209;-39
2021/01/25 11:44:53;;;;;;;6.93;4.18;;;3.30;99.90;;;;;;4975641;28;20204;-39
2021/01/25 11:47:24;;;;;;;6.55;3.97;;;3.20;99.90;;;;;;4984395;28;20212;-38
2021/01/25 11:49:56;;;;;;;5.28;3.97;;;3.30;99.90;;;;;;4984854;28;20684;-39
2021/01/25 11:52:26;;;;;;;11.75;5.25;;;3.40;99.90;;;;;;4973112;28;20204;-39
2021/01/25 11:54:56;;;;;;;9.90;4.80;;;3.40;99.90;;;;;;4983673;28;20209;-39
2021/01/25 11:57:26;;;;;;;5.13;4.60;;;3.40;99.90;;;;;;4977620;28;20217;-39
2021/01/25 11:59:56;;;;;;;8.07;4.60;;;3.50;99.90;;;;;;4976171;28;20204;-38
2021/01/25 12:02:27;;;;;;;8.57;5.07;;;3.50;99.90;;;;;;4965424;28;20208;-38
2021/01/25 12:04:58;;;;;;;8.82;3.95;;;3.60;99.90;;;;;;4981702;28;20211;-38
2021/01/25 12:07:28;;;;;;;7.57;4.50;;;3.70;99.90;;;;;;4973876;28;20209;-39
2021/01/25 12:09:58;;;;;;;6.40;3.85;;;3.60;99.90;;;;;;4976273;28;20228;-39
2021/01/25 12:12:47;;;;;;;5.50;3.90;;;3.70;99.90;;;;;;4972406;28;20236;-39
2021/01/25 12:15:18;;;;;;;8.02;4.15;;;3.70;99.90;;;;;;4984169;28;20205;-39
2021/01/25 12:17:49;;;;;;;8.48;5.00;;;3.70;99.90;;;;;;4984354;28;20201;-39
2021/01/25 12:20:19;;;;;;;10.77;4.57;;;3.80;99.90;;;;;;4981054;28;20207;-38
2021/01/25 12:22:49;;;;;;;8.77;4.53;;;3.80;99.90;;;;;;4974764;28;20201;-38
2021/01/25 12:25:19;;;;;;;16.10;5.72;;;3.90;99.90;;;;;;4981703;28;20197;-39
2021/01/25 12:27:51;;;;;;;7.63;4.15;;;4.00;99.90;;;;;;4983810;28;20220;-39
2021/01/25 12:30:22;;;;;;;9.75;4.85;;;3.90;99.90;;;;;;4982447;28;20224;-38
2021/01/25 12:32:53;;;;;;;7.80;4.50;;;3.90;99.90;;;;;;4979573;28;20197;-38
2021/01/25 12:35:24;;;;;;;7.72;5.82;;;4.00;99.90;;;;;;4972053;28;20197;-39
2021/01/25 12:37:55;;;;;;;5.25;3.58;;;4.00;99.90;;;;;;4982299;28;20204;-39
2021/01/25 12:40:26;;;;;;;5.22;3.83;;;4.00;99.90;;;;;;4977737;28;20581;-39
2021/01/25 12:42:56;;;;;;;8.02;4.30;;;4.00;99.90;;;;;;4981683;28;20219;-39
2021/01/25 12:45:27;;;;;;;11.50;7.00;;;4.10;99.90;;;;;;4982662;28;20209;-39
2021/01/25 12:47:59;;;;;;;9.00;4.35;;;3.90;99.90;;;;;;4983289;28;20224;-39
2021/01/25 12:50:29;;;;;;;8.50;4.95;;;3.90;99.90;;;;;;4984033;28;20379;-39
2021/01/25 12:52:59;;;;;;;12.68;4.85;;;3.90;99.90;;;;;;4983655;28;20228;-39
2021/01/25 12:55:29;;;;;;;9.45;4.78;;;3.90;99.90;;;;;;4983347;28;20267;-38
2021/01/25 12:57:59;;;;;;;7.07;4.65;;;3.90;99.90;;;;;;4968914;28;20224;-38
2021/01/25 13:00:31;;;;;;;11.77;4.60;;;4.00;99.90;;;;;;4983718;28;20279;-38
2021/01/25 13:03:02;;;;;;;4.22;3.83;;;3.90;99.90;;;;;;4983660;28;20208;-39
2021/01/25 13:05:33;;;;;;;7.38;5.43;;;3.90;99.90;;;;;;4983980;28;20212;-38
2021/01/25 13:08:03;;;;;;;8.57;5.15;;;3.90;99.90;;;;;;4983946;28;20217;-39
2021/01/25 13:10:34;;;;;;;5.68;3.83;;;3.70;99.90;;;;;;4983474;28;20232;-38
2021/01/25 13:13:06;;;;;;;7.18;3.30;;;3.70;99.90;;;;;;4982822;28;20236;-39
2021/01/25 13:15:36;;;;;;;9.45;4.68;;;3.70;99.90;;;;;;4983387;28;20205;-39